Time;durP1;ratioP1;P1;durP2;ratioP2;P2;SDS_P1;SDS_P2;PMS_P1;PMS_P2;Temp;Humidity;BMP_temperature;BMP_pressure;BME280_temperature;BME280_humidity;BME280_pressure;Samples;Min_cycle;Max_cycle;Signal;HPM_P1;HPM_P2
2021/12/08 00:01:21;;;;;;;;;4.25;0.00;;;;;7.40;69.65;99285.19;5079153;28;45395;-52
2021/12/08 00:03:47;;;;;;;;;0.00;0.00;;;;;7.35;69.64;99285.69;5078810;28;46083;-53
2021/12/08 00:06:13;;;;;;;;;1.00;1.00;;;;;7.36;70.05;99294.44;5078952;28;46515;-54
2021/12/08 00:08:45;;;;;;;;;2.00;0.00;;;;;7.33;69.42;99290.34;5078710;28;45589;-52
2021/12/08 00:13:54;;;;;;;;;3.25;1.00;;;;;7.29;69.97;99298.72;5079206;28;45334;-55
2021/12/08 00:16:19;;;;;;;;;5.75;1.75;;;;;7.26;69.51;99294.59;5078656;28;46117;-50
2021/12/08 00:18:48;;;;;;;;;1.50;1.50;;;;;7.25;69.73;99285.00;5078938;28;45288;-50
2021/12/08 00:21:16;;;;;;;;;1.00;1.00;;;;;7.22;70.11;99280.03;5078781;28;45476;-52
2021/12/08 00:23:43;;;;;;;;;0.00;0.00;;;;;7.13;69.97;99283.66;5078861;28;45603;-52
2021/12/08 00:26:09;;;;;;;;;0.00;0.00;;;;;7.18;70.18;99278.69;5078563;28;45381;-51
2021/12/08 00:28:35;;;;;;;;;2.75;1.50;;;;;7.14;70.35;99269.44;5078773;28;45301;-50
2021/12/08 00:31:04;;;;;;;;;1.00;1.00;;;;;7.12;69.96;99274.91;5078834;28;45421;-53
2021/12/08 00:33:30;;;;;;;;;1.75;1.75;;;;;7.09;70.55;99263.81;5078701;28;45433;-52
2021/12/08 00:35:58;;;;;;;;;1.25;0.00;;;;;7.07;70.18;99281.63;5078662;28;45354;-53
2021/12/08 00:38:24;;;;;;;;;2.00;2.00;;;;;7.02;70.46;99279.47;5078402;28;45345;-55
2021/12/08 00:40:50;;;;;;;;;3.50;1.00;;;;;6.99;69.97;99272.69;5078568;28;45411;-54
2021/12/08 00:43:18;;;;;;;;;1.00;1.00;;;;;6.99;69.48;99277.13;5078939;28;45556;-51
2021/12/08 00:45:44;;;;;;;;;0.25;0.25;;;;;6.96;69.64;99270.38;5078157;28;47124;-54
2021/12/08 00:48:10;;;;;;;;;1.75;0.00;;;;;6.95;69.59;99289.88;5078580;28;45417;-51
2021/12/08 00:50:38;;;;;;;;;3.25;0.25;;;;;6.93;69.77;99283.06;5078684;28;45512;-53
2021/12/08 00:53:04;;;;;;;;;0.25;0.00;;;;;6.93;69.69;99302.41;5078406;28;45374;-53
2021/12/08 00:55:30;;;;;;;;;0.75;0.00;;;;;6.90;69.87;99313.28;5078306;28;45374;-54
2021/12/08 00:57:56;;;;;;;;;0.75;0.00;;;;;6.90;69.66;99307.19;5076939;28;45263;-53
2021/12/08 01:00:23;;;;;;;;;3.50;0.00;;;;;6.88;69.48;99319.72;5059942;28;45518;-52
2021/12/08 01:02:48;;;;;;;;;2.00;0.75;;;;;6.87;69.46;99324.19;5078475;28;45325;-55
2021/12/08 01:05:18;;;;;;;;;0.00;0.00;;;;;6.85;69.59;99325.31;5077841;28;47256;-52
2021/12/08 01:07:44;;;;;;;;;0.75;0.00;;;;;6.82;69.73;99323.81;5078172;28;45386;-53
2021/12/08 01:10:14;;;;;;;;;1.50;0.00;;;;;6.77;69.93;99325.28;5077869;28;45211;-52
2021/12/08 01:12:40;;;;;;;;;2.50;0.00;;;;;6.79;69.34;99315.41;5078062;28;45422;-53
2021/12/08 01:15:06;;;;;;;;;2.00;0.00;;;;;6.67;69.36;99313.00;5076742;28;45300;-54
2021/12/08 01:17:33;;;;;;;;;1.00;0.00;;;;;6.74;69.21;99324.63;5059513;28;46764;-54
2021/12/08 01:19:59;;;;;;;;;0.00;0.00;;;;;6.71;68.90;99319.66;5077933;28;45393;-53
2021/12/08 01:22:25;;;;;;;;;0.50;0.00;;;;;6.69;68.74;99312.84;5078101;28;45179;-52
2021/12/08 01:24:51;;;;;;;;;0.00;0.00;;;;;6.68;69.66;99319.13;5077489;28;46179;-52
2021/12/08 01:27:16;;;;;;;;;0.00;0.00;;;;;6.66;69.04;99307.91;5077854;28;45313;-54
2021/12/08 01:29:42;;;;;;;;;0.00;0.00;;;;;6.63;68.92;99306.38;5077891;28;45246;-50
2021/12/08 01:32:07;;;;;;;;;1.00;0.00;;;;;6.64;68.90;99297.47;5078034;28;45312;-50
2021/12/08 01:34:34;;;;;;;;;0.00;0.00;;;;;6.64;69.03;99296.63;5077385;28;46235;-50
2021/12/08 01:37:00;;;;;;;;;3.50;0.00;;;;;6.60;68.60;99296.13;5077525;28;45524;-51
2021/12/08 01:39:25;;;;;;;;;1.00;0.00;;;;;6.59;68.96;99291.84;5059260;28;45360;-51
2021/12/08 01:41:53;;;;;;;;;5.00;1.00;;;;;6.55;68.75;99293.13;5077798;28;45310;-53
2021/12/08 01:47:04;;;;;;;;;0.00;0.00;;;;;6.52;69.32;99300.53;5077454;28;45264;-53
2021/12/08 01:49:30;;;;;;;;;0.25;0.00;;;;;6.50;69.33;99308.63;5077478;28;45232;-54
2021/12/08 01:51:55;;;;;;;;;0.00;0.00;;;;;6.44;69.38;99317.16;5077334;28;45478;-51
2021/12/08 01:54:21;;;;;;;;;1.75;1.00;;;;;6.44;69.56;99327.72;5077237;28;46193;-53
2021/12/08 01:56:46;;;;;;;;;0.00;0.00;;;;;6.43;69.69;99340.09;5077271;28;45317;-52
2021/12/08 01:59:12;;;;;;;;;3.25;0.00;;;;;6.42;69.30;99346.38;5077234;28;45677;-56
2021/12/08 02:01:42;;;;;;;;;0.00;0.00;;;;;6.43;69.59;99336.63;5077586;28;45444;-56
2021/12/08 02:04:08;;;;;;;;;5.00;1.00;;;;;6.40;68.96;99337.75;5077098;28;45428;-55
2021/12/08 02:06:36;;;;;;;;;1.25;1.25;;;;;6.39;70.16;99332.66;5077351;28;45341;-54
2021/12/08 02:09:06;;;;;;;;;3.50;1.00;;;;;6.37;69.00;99345.19;5076514;28;45305;-52
2021/12/08 02:11:31;;;;;;;;;1.50;0.00;;;;;6.36;70.01;99354.94;5077145;28;45400;-58
2021/12/08 02:14:00;;;;;;;;;0.50;0.00;;;;;6.34;69.90;99362.16;5076930;28;46234;-54
2021/12/08 02:16:28;;;;;;;;;0.00;0.00;;;;;6.35;70.29;99361.16;5077037;28;45527;-56
2021/12/08 02:18:54;;;;;;;;;0.00;0.00;;;;;6.33;70.79;99375.53;5077037;28;45452;-56
2021/12/08 02:21:29;;;;;;;;;3.75;1.00;;;;;6.29;70.46;99385.56;5077343;28;45343;-53
2021/12/08 02:23:58;;;;;;;;;0.75;0.75;;;;;6.27;70.69;99379.59;5076737;28;46298;-54
2021/12/08 02:26:24;;;;;;;;;1.00;1.00;;;;;6.27;70.39;99391.97;5078719;28;45240;-54
2021/12/08 02:28:50;;;;;;;;;0.75;0.00;;;;;6.23;70.68;99389.63;5080523;28;45438;-54
2021/12/08 02:31:21;;;;;;;;;0.50;0.50;;;;;6.21;70.31;99390.78;5080707;28;45561;-53
2021/12/08 02:50:11;;;;;;;;;0.50;0.50;;;;;6.09;70.80;99400.72;5080410;28;45372;-58
2021/12/08 02:52:36;;;;;;;;;1.00;0.00;;;;;6.08;71.02;99398.25;5080385;28;45472;-52
2021/12/08 02:55:07;;;;;;;;;0.25;0.25;;;;;6.06;70.97;99387.00;5080088;28;46123;-53
2021/12/08 02:57:35;;;;;;;;;0.00;0.00;;;;;6.05;70.41;99391.44;5080429;28;45314;-52
2021/12/08 03:00:01;;;;;;;;;2.00;0.00;;;;;6.03;70.32;99403.16;5080421;28;45344;-54
2021/12/08 03:02:27;;;;;;;;;0.00;0.00;;;;;6.03;70.77;99403.16;5079896;28;45487;-53
2021/12/08 03:04:52;;;;;;;;;0.00;0.00;;;;;6.03;70.76;99392.59;5079834;28;45377;-56
2021/12/08 03:07:18;;;;;;;;;1.00;0.00;;;;;5.99;70.37;99390.25;5080043;28;45321;-52
2021/12/08 03:09:44;;;;;;;;;1.50;0.00;;;;;6.03;70.29;99384.69;5079989;28;45389;-52
2021/12/08 03:12:09;;;;;;;;;0.00;0.00;;;;;6.03;70.62;99385.50;5079820;28;45444;-54
2021/12/08 03:14:35;;;;;;;;;3.00;1.00;;;;;5.67;70.27;99323.91;5079876;28;45370;-56
2021/12/08 03:17:06;;;;;;;;;2.00;2.00;;;;;6.02;70.91;99381.19;5079943;28;45467;-52
2021/12/08 03:19:31;;;;;;;;;1.00;0.00;;;;;5.96;70.17;99372.06;5079920;28;45409;-56
2021/12/08 03:21:58;;;;;;;;;2.00;0.75;;;;;5.98;70.73;99374.53;5079950;28;45464;-52
2021/12/08 03:24:32;;;;;;;;;2.00;0.00;;;;;5.97;70.75;99362.34;5079537;28;46078;-52
2021/12/08 03:29:41;;;;;;;;;0.75;0.75;;;;;5.95;70.44;99359.03;5079613;28;45250;-53
2021/12/08 03:32:14;;;;;;;;;0.00;0.00;;;;;5.91;70.39;99345.28;5079721;28;45331;-55
2021/12/08 03:34:50;;;;;;;;;0.00;0.00;;;;;5.94;70.19;99350.28;5079341;28;47055;-53
2021/12/08 03:37:18;;;;;;;;;5.00;0.00;;;;;5.92;70.51;99346.94;5078446;28;45283;-52
2021/12/08 03:39:44;;;;;;;;;0.00;0.00;;;;;5.92;70.79;99330.28;5079683;28;45391;-53
2021/12/08 03:42:10;;;;;;;;;0.00;0.00;;;;;5.91;70.10;99347.09;5079685;28;45317;-53
2021/12/08 03:44:37;;;;;;;;;0.00;0.00;;;;;5.91;70.42;99357.63;5078969;28;45846;-57
2021/12/08 03:47:12;;;;;;;;;1.00;1.00;;;;;5.89;70.87;99349.84;5079483;28;45491;-52
2021/12/08 03:49:39;;;;;;;;;1.00;0.25;;;;;5.88;70.66;99335.00;5079374;28;45435;-52
2021/12/08 03:52:04;;;;;;;;;8.50;1.75;;;;;5.87;70.60;99346.56;5079399;28;45316;-53
2021/12/08 03:54:30;;;;;;;;;0.00;0.00;;;;;5.85;70.87;99350.31;5079029;28;46068;-51
2021/12/08 03:56:56;;;;;;;;;2.50;0.00;;;;;5.87;70.42;99329.88;5078955;28;45622;-51
2021/12/08 03:59:22;;;;;;;;;0.75;0.50;;;;;5.85;71.04;99347.66;5079380;28;45315;-57
2021/12/08 04:01:47;;;;;;;;;0.00;0.00;;;;;5.84;70.42;99357.41;5079410;28;45475;-55
2021/12/08 04:04:13;;;;;;;;;2.75;1.00;;;;;5.84;70.74;99360.03;5078975;28;45907;-54
2021/12/08 04:06:51;;;;;;;;;1.50;0.00;;;;;5.84;70.49;99348.66;5079083;28;45346;-51
2021/12/08 04:09:27;;;;;;;;;2.00;1.00;;;;;5.81;70.58;99348.94;5078931;28;45519;-54
2021/12/08 04:11:53;;;;;;;;;1.00;0.00;;;;;5.79;70.71;99354.38;5060610;28;45391;-50
2021/12/08 04:14:21;;;;;;;;;1.50;0.00;;;;;5.79;70.79;99361.47;5078744;28;46280;-53
2021/12/08 04:16:55;;;;;;;;;2.00;1.00;;;;;5.74;71.00;99349.56;5077421;28;45334;-54
2021/12/08 04:19:21;;;;;;;;;0.00;0.00;;;;;5.74;71.25;99340.81;5078757;28;45215;-53
2021/12/08 04:21:49;;;;;;;;;1.75;0.00;;;;;5.74;71.46;99349.56;5079124;28;45207;-54
2021/12/08 04:24:15;;;;;;;;;0.00;0.00;;;;;5.71;71.12;99352.50;5078523;28;46068;-52
2021/12/08 04:26:44;;;;;;;;;1.75;0.50;;;;;5.75;71.62;99355.66;5078508;28;45445;-51
2021/12/08 04:29:11;;;;;;;;;0.00;0.00;;;;;5.72;71.10;99348.03;5078930;28;45353;-52
2021/12/08 04:31:41;;;;;;;;;1.50;0.00;;;;;5.71;71.56;99349.84;5078719;28;45471;-54
2021/12/08 04:34:15;;;;;;;;;2.00;1.00;;;;;5.72;70.93;99351.50;5078327;28;45356;-50
2021/12/08 04:36:46;;;;;;;;;4.00;0.00;;;;;5.70;71.06;99352.66;5078608;28;45353;-54
2021/12/08 04:39:23;;;;;;;;;0.00;0.00;;;;;5.70;71.45;99363.22;5078645;28;45368;-51
2021/12/08 04:41:55;;;;;;;;;6.00;1.75;;;;;5.73;71.49;99357.59;5078451;28;45476;-52
2021/12/08 04:44:31;;;;;;;;;0.75;0.00;;;;;5.65;71.27;99337.28;5078097;28;46998;-52
2021/12/08 04:47:29;;;;;;;;;1.00;1.00;;;;;5.69;71.47;99359.75;5078272;28;45340;-56
2021/12/08 05:03:44;;;;;;;;;2.00;0.50;;;;;5.65;71.61;99368.09;5079020;28;45541;-56
2021/12/08 05:06:37;;;;;;;;;5.25;4.00;;;;;5.65;71.85;99405.03;5079069;28;47266;-56
2021/12/08 05:09:07;;;;;;;;;0.25;0.25;;;;;5.69;71.77;99399.31;5079219;28;45420;-54
2021/12/08 05:11:36;;;;;;;;;1.75;1.75;;;;;5.66;71.56;99393.50;5079140;28;45425;-53
2021/12/08 05:14:15;;;;;;;;;4.75;2.00;;;;;5.63;71.85;99391.97;5078646;28;45301;-54
2021/12/08 05:16:44;;;;;;;;;8.75;4.00;;;;;5.60;72.15;99399.34;5077129;28;47028;-59
2021/12/08 05:19:13;;;;;;;;;0.00;0.00;;;;;5.57;72.07;99403.13;5078420;28;45309;-53
2021/12/08 05:21:46;;;;;;;;;3.00;1.00;;;;;5.51;72.25;99393.97;5078778;28;45363;-57
2021/12/08 05:24:15;;;;;;;;;1.25;1.25;;;;;5.54;72.41;99408.69;5078432;28;45360;-53
2021/12/08 05:26:48;;;;;;;;;5.25;1.50;;;;;5.57;71.85;99405.78;5077494;28;46173;-53
2021/12/08 05:29:19;;;;;;;;;2.50;1.25;;;;;5.51;71.91;99412.44;5060200;28;45354;-55
2021/12/08 05:31:46;;;;;;;;;4.00;4.00;;;;;5.51;72.10;99409.81;5077917;28;45395;-54
2021/12/08 05:34:12;;;;;;;;;2.50;1.75;;;;;5.49;71.92;99416.22;5076893;28;45325;-61
2021/12/08 05:36:38;;;;;;;;;4.00;1.75;;;;;5.43;71.70;99414.97;5077382;28;46349;-53
2021/12/08 05:39:11;;;;;;;;;3.00;1.00;;;;;5.37;72.29;99425.31;5077579;28;45369;-52
2021/12/08 05:41:40;;;;;;;;;0.75;0.75;;;;;5.38;72.38;99440.16;5077731;28;45394;-60
2021/12/08 05:44:06;;;;;;;;;4.00;1.00;;;;;5.24;72.21;99409.81;5077635;28;45230;-56
2021/12/08 05:46:34;;;;;;;;;3.00;1.00;;;;;5.37;72.30;99434.03;5076873;28;45420;-53
2021/12/08 05:49:01;;;;;;;;;2.00;0.25;;;;;5.34;72.55;99425.59;5077174;28;45389;-58
2021/12/08 05:51:31;;;;;;;;;1.00;1.00;;;;;5.32;72.39;99422.28;5077266;28;45378;-53
2021/12/08 05:54:01;;;;;;;;;1.00;0.25;;;;;5.25;72.40;99422.00;5077438;28;45510;-60
2021/12/08 05:56:27;;;;;;;;;1.25;1.00;;;;;5.20;72.72;99417.19;5076969;28;45447;-53
2021/12/08 05:58:55;;;;;;;;;0.25;0.00;;;;;5.29;73.23;99431.31;5077252;28;45467;-51
2021/12/08 06:01:32;;;;;;;;;2.00;1.00;;;;;5.31;73.06;99418.81;5076447;28;45399;-55
2021/12/08 06:04:00;;;;;;;;;3.50;3.00;;;;;5.26;72.51;99411.31;5077441;28;45203;-51
2021/12/08 06:06:27;;;;;;;;;2.00;0.50;;;;;5.23;72.82;99401.06;5077209;28;46071;-53
2021/12/08 06:08:53;;;;;;;;;0.75;0.50;;;;;5.20;72.89;99414.53;5077086;28;45404;-58
2021/12/08 06:11:19;;;;;;;;;5.00;2.00;;;;;5.20;72.89;99406.63;5077057;28;45341;-53
2021/12/08 06:13:47;;;;;;;;;1.00;1.00;;;;;5.20;72.63;99404.00;5075844;28;45487;-58
2021/12/08 06:16:15;;;;;;;;;0.00;0.00;;;;;5.16;72.43;99401.81;5076890;28;46265;-55
2021/12/08 06:18:42;;;;;;;;;4.00;1.00;;;;;5.14;72.24;99409.00;5077000;28;45449;-55
2021/12/08 06:21:14;;;;;;;;;1.00;1.00;;;;;5.13;72.86;99405.53;5077194;28;45344;-57
2021/12/08 06:23:41;;;;;;;;;4.00;1.00;;;;;5.14;72.26;99401.09;5076949;28;45477;-56
2021/12/08 06:26:07;;;;;;;;;1.25;1.25;;;;;5.12;72.94;99392.53;5076774;28;46080;-55
2021/12/08 06:28:34;;;;;;;;;1.25;1.25;;;;;5.11;72.96;99396.13;5076744;28;45404;-52
2021/12/08 06:30:59;;;;;;;;;1.00;1.00;;;;;5.05;73.30;99400.16;5077051;28;45316;-51
2021/12/08 06:33:26;;;;;;;;;4.00;1.25;;;;;5.08;73.29;99418.31;5077136;28;45374;-53
2021/12/08 06:36:04;;;;;;;;;4.00;1.25;;;;;5.06;72.88;99428.19;5076830;28;46661;-53
2021/12/08 06:38:30;;;;;;;;;0.25;0.25;;;;;5.07;73.01;99431.66;5076555;28;45461;-53
2021/12/08 06:41:04;;;;;;;;;4.25;1.00;;;;;5.03;73.41;99428.47;5076963;28;45372;-50
2021/12/08 06:43:36;;;;;;;;;1.25;1.00;;;;;5.05;72.90;99437.06;5076945;28;45274;-55
2021/12/08 06:46:02;;;;;;;;;2.00;0.00;;;;;5.08;72.53;99441.22;5076167;28;46288;-55
2021/12/08 06:48:38;;;;;;;;;2.00;0.00;;;;;5.07;73.21;99439.56;5076495;28;45325;-53
2021/12/08 06:51:11;;;;;;;;;2.00;2.00;;;;;5.07;73.00;99437.75;5076940;28;45233;-52
2021/12/08 06:53:38;;;;;;;;;3.25;1.25;;;;;5.08;73.06;99434.16;5076783;28;45244;-52
2021/12/08 06:56:09;;;;;;;;;1.00;1.00;;;;;5.02;72.64;99429.47;5076482;28;45524;-54
2021/12/08 06:58:37;;;;;;;;;2.00;0.75;;;;;5.08;72.71;99439.41;5076370;28;45222;-49
2021/12/08 07:01:17;;;;;;;;;3.00;1.25;;;;;5.07;72.90;99445.66;5076592;28;45192;-48
2021/12/08 07:09:13;;;;;;;;;4.25;1.50;;;;;5.05;73.78;99439.69;5075999;28;45389;-50
2021/12/08 07:11:40;;;;;;;;;5.50;2.00;;;;;5.05;72.58;99425.69;5076429;28;45275;-52
2021/12/08 07:14:06;;;;;;;;;1.00;1.00;;;;;5.04;73.01;99421.41;5079245;28;45437;-53
2021/12/08 07:16:36;;;;;;;;;1.75;1.75;;;;;5.00;73.11;99416.41;5079460;28;47077;-52
2021/12/08 07:19:13;;;;;;;;;1.75;1.00;;;;;5.02;72.81;99429.47;5079735;28;45435;-52
2021/12/08 07:21:43;;;;;;;;;4.00;4.00;;;;;5.01;72.78;99438.31;5079726;28;45433;-49
2021/12/08 07:24:19;;;;;;;;;3.75;2.00;;;;;5.04;73.12;99448.59;5079844;28;45404;-50
2021/12/08 07:26:47;;;;;;;;;2.75;1.00;;;;;5.06;73.47;99451.09;5079343;28;45414;-52
2021/12/08 07:29:16;;;;;;;;;5.00;2.00;;;;;5.08;73.25;99444.69;5079481;28;45519;-51
2021/12/08 07:31:51;;;;;;;;;5.00;4.50;;;;;5.10;73.55;99452.44;5079411;28;45374;-59
2021/12/08 07:34:19;;;;;;;;;7.00;2.00;;;;;5.10;72.92;99458.56;5079782;28;45349;-56
2021/12/08 07:36:51;;;;;;;;;2.00;1.00;;;;;5.11;73.64;99460.22;5079311;28;45681;-51
2021/12/08 07:39:26;;;;;;;;;2.00;2.00;;;;;5.13;73.25;99455.63;5079360;28;45425;-51
2021/12/08 07:41:57;;;;;;;;;4.00;1.00;;;;;5.16;72.87;99457.97;5079438;28;45476;-52
2021/12/08 07:44:23;;;;;;;;;1.00;1.00;;;;;5.02;72.88;99429.47;5079087;28;45565;-52
2021/12/08 07:47:16;;;;;;;;;5.00;3.00;;;;;5.19;72.94;99472.69;5061196;28;46175;-52
2021/12/08 07:49:56;;;;;;;;;0.50;0.00;;;;;5.20;73.13;99456.72;5074717;28;45333;-48
2021/12/08 07:52:28;;;;;;;;;5.75;2.00;;;;;5.21;73.27;99461.00;5075467;28;45305;-52
2021/12/08 07:54:55;;;;;;;;;2.00;2.00;;;;;5.23;73.31;99461.72;5079475;28;45330;-51
2021/12/08 07:57:26;;;;;;;;;7.50;2.00;;;;;5.22;73.26;99446.88;5079044;28;46495;-52
2021/12/08 07:59:56;;;;;;;;;2.00;1.00;;;;;5.25;72.67;99441.28;5078977;28;45460;-51
2021/12/08 08:02:25;;;;;;;;;1.00;0.00;;;;;5.26;73.15;99455.31;5079235;28;45184;-52
2021/12/08 08:04:52;;;;;;;;;3.25;1.75;;;;;5.25;72.31;99446.56;5079350;28;45445;-50
2021/12/08 08:07:19;;;;;;;;;1.00;1.00;;;;;5.22;72.42;99441.59;5078759;28;46307;-50
2021/12/08 08:09:47;;;;;;;;;1.75;1.25;;;;;5.30;72.14;99458.50;5078952;28;45256;-50
2021/12/08 08:12:19;;;;;;;;;3.50;0.75;;;;;5.31;73.07;99442.53;5078929;28;45336;-50
2021/12/08 08:14:51;;;;;;;;;1.00;1.00;;;;;5.34;72.21;99459.88;5078926;28;45329;-53
2021/12/08 08:17:24;;;;;;;;;1.00;0.50;;;;;5.34;72.31;99444.88;5078667;28;46263;-50
2021/12/08 08:19:49;;;;;;;;;4.00;1.00;;;;;5.36;72.28;99450.03;5078974;28;45538;-51
2021/12/08 08:22:22;;;;;;;;;1.00;1.00;;;;;5.39;72.77;99454.97;5078772;28;45435;-50
2021/12/08 08:24:48;;;;;;;;;2.50;2.00;;;;;5.40;72.21;99456.66;5078555;28;45417;-48
2021/12/08 08:27:15;;;;;;;;;2.00;2.00;;;;;5.46;72.82;99456.06;5078702;28;46074;-52
2021/12/08 08:29:41;;;;;;;;;3.00;1.75;;;;;5.50;72.44;99462.72;5078435;28;45497;-54
2021/12/08 08:32:11;;;;;;;;;3.00;0.75;;;;;5.55;72.25;99465.75;5078528;28;45357;-51
2021/12/08 08:34:41;;;;;;;;;1.25;1.00;;;;;5.59;71.81;99472.38;5061106;28;45328;-51
2021/12/08 08:37:10;;;;;;;;;1.75;1.00;;;;;5.63;72.53;99481.69;5078400;28;46755;-57
2021/12/08 08:39:40;;;;;;;;;1.50;0.75;;;;;5.68;72.34;99491.78;5078302;28;45256;-53
2021/12/08 08:42:16;;;;;;;;;5.75;2.00;;;;;5.71;71.32;99488.88;5078398;28;45423;-51
2021/12/08 08:44:54;;;;;;;;;1.00;0.75;;;;;5.75;71.81;99492.88;5078153;28;45359;-50
2021/12/08 08:47:27;;;;;;;;;2.00;0.00;;;;;5.80;72.04;99492.44;5078160;28;45458;-52
2021/12/08 08:49:53;;;;;;;;;1.25;1.00;;;;;5.84;71.54;99494.63;5078246;28;45423;-50
2021/12/08 08:52:22;;;;;;;;;4.00;2.00;;;;;5.90;71.01;99498.47;5078212;28;45354;-52
2021/12/08 08:54:52;;;;;;;;;2.50;1.75;;;;;5.97;70.90;99483.75;5078418;28;45453;-50
2021/12/08 08:57:24;;;;;;;;;2.50;2.00;;;;;6.04;70.69;99490.13;5078008;28;46971;-52
2021/12/08 09:00:05;;;;;;;;;4.75;1.75;;;;;6.10;70.09;99484.22;5078253;28;45349;-55
2021/12/08 09:02:39;;;;;;;;;3.00;2.00;;;;;6.18;70.23;99480.84;5078153;28;45321;-55
2021/12/08 09:05:16;;;;;;;;;8.75;1.50;;;;;6.34;69.83;99491.56;5078327;28;45313;-53
2021/12/08 09:07:47;;;;;;;;;4.75;0.75;;;;;6.48;69.71;99491.03;5078036;28;45359;-51
2021/12/08 09:10:32;;;;;;;;;5.00;3.50;;;;;6.93;68.98;99497.22;5078067;28;45416;-54
2021/12/08 09:13:03;;;;;;;;;2.00;0.00;;;;;7.48;67.96;99484.50;5078071;28;45282;-53
2021/12/08 09:15:42;;;;;;;;;7.50;1.00;;;;;8.03;66.23;99496.47;5078001;28;45417;-56
2021/12/08 09:18:29;;;;;;;;;2.75;1.00;;;;;8.30;64.71;99460.09;5077801;28;45436;-53
2021/12/08 09:21:13;;;;;;;;;3.25;1.25;;;;;9.01;62.70;99504.56;5077371;28;45250;-55
2021/12/08 09:23:50;;;;;;;;;2.00;2.00;;;;;9.42;62.00;99509.81;5077573;28;45396;-54
2021/12/08 09:26:19;;;;;;;;;1.00;1.00;;;;;9.84;61.19;99517.50;5077997;28;45354;-52
2021/12/08 09:28:59;;;;;;;;;4.00;1.00;;;;;10.29;59.19;99512.50;5077721;28;45371;-52
2021/12/08 09:31:36;;;;;;;;;5.00;1.00;;;;;10.48;58.11;99510.22;5077650;28;45409;-48
2021/12/08 09:34:08;;;;;;;;;1.00;1.00;;;;;10.54;58.12;99521.16;5077616;28;45305;-52
2021/12/08 09:36:39;;;;;;;;;3.00;1.67;;;;;10.54;57.18;99526.50;5076706;28;45286;-51
2021/12/08 09:39:13;;;;;;;;;3.67;1.00;;;;;10.44;58.91;99519.53;5077119;28;46489;-52
2021/12/08 09:41:48;;;;;;;;;2.67;0.00;;;;;10.38;57.50;99508.81;5077726;28;45442;-48
2021/12/08 09:44:19;;;;;;;;;0.33;0.33;;;;;10.45;57.36;99528.38;5077397;28;45377;-52
2021/12/08 09:46:48;;;;;;;;;7.00;5.00;;;;;10.65;57.39;99537.53;5077765;28;45186;-56
2021/12/08 09:49:16;;;;;;;;;5.00;1.00;;;;;11.19;55.50;99528.63;5077426;28;46246;-60
2021/12/08 09:51:43;;;;;;;;;2.00;1.00;;;;;12.34;52.77;99536.19;5059256;28;45576;-54
2021/12/08 09:54:08;;;;;;;;;2.00;2.00;;;;;13.75;50.89;99532.72;5077585;28;45351;-54
2021/12/08 09:56:34;;;;;;;;;0.00;0.00;;;;;14.99;47.87;99519.16;5077588;28;45385;-55
2021/12/08 09:59:03;;;;;;;;;0.67;0.67;;;;;16.17;45.15;99521.84;5077282;28;47219;-52
2021/12/08 10:01:30;;;;;;;;;2.33;1.67;;;;;16.98;41.33;99506.94;5077145;28;45344;-53
2021/12/08 10:03:56;;;;;;;;;1.00;1.00;;;;;16.95;42.06;99510.91;5077570;28;45469;-51
2021/12/08 10:06:24;;;;;;;;;1.00;0.67;;;;;16.86;43.04;99504.16;5077479;28;45345;-52
2021/12/08 10:08:51;;;;;;;;;6.33;2.00;;;;;17.10;40.64;99486.41;5077137;28;46340;-51
2021/12/08 10:11:18;;;;;;;;;2.00;2.00;;;;;17.86;40.60;99493.31;5077074;28;45285;-52
2021/12/08 10:13:45;;;;;;;;;3.67;2.00;;;;;18.62;39.47;99490.03;5077321;28;45347;-60
2021/12/08 10:16:12;;;;;;;;;3.00;3.00;;;;;19.20;37.91;99494.75;5077297;28;45372;-52
2021/12/08 10:18:39;;;;;;;;;4.33;2.00;;;;;19.65;36.53;99485.28;5077050;28;45357;-55
2021/12/08 10:21:04;;;;;;;;;4.00;1.00;;;;;19.80;35.05;99487.47;5077157;28;45330;-51
2021/12/08 10:23:34;;;;;;;;;4.67;1.67;;;;;20.09;37.36;99474.84;5077156;28;45443;-51
2021/12/08 10:26:13;;;;;;;;;2.00;2.00;;;;;19.20;37.04;99470.47;5077519;28;45458;-64
2021/12/08 10:28:48;;;;;;;;;1.00;1.00;;;;;19.53;36.07;99474.47;5077001;28;46273;-59
2021/12/08 10:31:25;;;;;;;;;5.00;0.33;;;;;19.22;36.16;99489.13;5076890;28;45465;-57
2021/12/08 10:36:45;;;;;;;;;1.00;1.00;;;;;17.07;40.20;99489.53;5077129;28;45267;-64
2021/12/08 10:39:41;;;;;;;;;3.00;2.00;;;;;16.99;40.27;99495.19;5076731;28;46938;-53
2021/12/08 10:42:23;;;;;;;;;3.67;2.33;;;;;17.79;42.08;99496.09;5076636;28;45442;-61
2021/12/08 10:45:12;;;;;;;;;3.00;1.00;;;;;18.32;38.64;99486.53;5076078;28;45356;-55
2021/12/08 10:47:48;;;;;;;;;2.33;1.67;;;;;17.87;38.78;99500.38;5079235;28;45330;-57
2021/12/08 10:55:54;;;;;;;;;6.00;3.00;;;;;19.41;38.27;99479.03;5080292;28;45270;-61
2021/12/08 10:58:23;;;;;;;;;3.00;1.00;;;;;19.14;36.52;99479.53;5080521;28;45373;-52
2021/12/08 11:00:50;;;;;;;;;1.67;1.00;;;;;19.51;35.07;99487.38;5079881;28;46167;-58
2021/12/08 11:03:16;;;;;;;;;1.00;1.00;;;;;20.51;34.13;99482.69;5080028;28;45347;-55
2021/12/08 11:05:44;;;;;;;;;5.00;2.00;;;;;21.43;33.17;99485.03;5079913;28;45446;-59
2021/12/08 11:08:15;;;;;;;;;0.00;0.00;;;;;21.92;32.43;99477.06;5080233;28;45278;-53
2021/12/08 11:10:44;;;;;;;;;2.00;0.75;;;;;22.15;31.03;99482.22;5080074;28;47211;-50
2021/12/08 11:13:11;;;;;;;;;1.25;1.25;;;;;22.39;30.33;99481.94;5079965;28;45204;-59
2021/12/08 11:15:38;;;;;;;;;3.00;0.00;;;;;22.53;30.56;99475.03;5080156;28;45534;-55
2021/12/08 11:18:11;;;;;;;;;1.75;1.75;;;;;22.45;30.48;99464.66;5080242;28;45431;-50
2021/12/08 11:20:46;;;;;;;;;1.75;1.00;;;;;22.47;30.58;99477.97;5079705;28;47392;-50
2021/12/08 11:23:16;;;;;;;;;1.00;0.40;;;;;22.29;31.28;99481.81;5079766;28;45391;-53
2021/12/08 11:25:45;;;;;;;;;2.50;2.25;;;;;22.34;30.53;99480.00;5080063;28;45251;-50
2021/12/08 11:28:37;;;;;;;;;2.75;1.00;;;;;22.22;30.68;99483.94;5080002;28;45431;-51
2021/12/08 11:31:15;;;;;;;;;1.00;1.00;;;;;22.38;31.05;99478.44;5074845;28;46486;-49
2021/12/08 11:33:47;;;;;;;;;4.00;1.00;;;;;22.35;29.42;99467.28;5079557;28;45346;-50
2021/12/08 11:36:19;;;;;;;;;0.75;0.75;;;;;22.08;31.77;99464.50;5079702;28;45301;-53
2021/12/08 11:38:47;;;;;;;;;5.25;1.50;;;;;21.73;30.34;99478.41;5079716;28;45258;-52
2021/12/08 11:41:35;;;;;;;;;0.25;0.00;;;;;20.99;32.25;99481.38;5079240;28;45398;-53
2021/12/08 11:44:09;;;;;;;;;3.60;0.80;;;;;20.46;32.61;99469.88;5079273;28;45544;-54
2021/12/08 11:46:44;;;;;;;;;3.50;1.25;;;;;19.97;35.35;99485.66;5079464;28;45399;-53
2021/12/08 11:49:10;;;;;;;;;9.00;5.00;;;;;19.67;34.23;99491.25;5079763;28;45321;-52
2021/12/08 11:51:42;;;;;;;;;9.75;3.00;;;;;19.16;34.22;99488.19;5079468;28;46098;-50
2021/12/08 11:54:07;;;;;;;;;7.00;5.75;;;;;18.76;35.82;99493.41;5079281;28;45282;-50
2021/12/08 11:56:36;;;;;;;;;2.75;1.50;;;;;18.70;35.88;99492.44;5079616;28;45203;-51
2021/12/08 11:59:04;;;;;;;;;1.75;1.75;;;;;18.75;36.12;99485.53;5078787;28;45286;-53
2021/12/08 12:01:29;;;;;;;;;4.25;3.00;;;;;18.81;35.22;99482.75;5078839;28;46288;-55
2021/12/08 12:03:55;;;;;;;;;7.00;4.00;;;;;18.73;35.76;99491.16;5079232;28;45412;-57
2021/12/08 12:06:27;;;;;;;;;2.00;2.00;;;;;18.84;38.34;99503.84;5079177;28;45258;-52
2021/12/08 12:08:55;;;;;;;;;1.00;1.00;;;;;18.81;35.01;99498.91;5079213;28;45319;-54
2021/12/08 12:11:24;;;;;;;;;1.00;1.00;;;;;19.14;36.05;99497.56;5079160;28;45243;-48
2021/12/08 12:13:50;;;;;;;;;1.00;1.00;;;;;19.52;35.29;99504.38;5078686;28;45353;-49
2021/12/08 12:16:15;;;;;;;;;5.00;3.00;;;;;19.64;34.28;99497.13;5078675;28;45490;-55
2021/12/08 12:18:41;;;;;;;;;2.50;2.00;;;;;19.79;32.84;99502.84;5079096;28;45324;-55
2021/12/08 12:21:26;;;;;;;;;2.75;1.75;;;;;19.79;34.33;99502.84;5078661;28;46098;-60
2021/12/08 12:24:11;;;;;;;;;2.25;1.75;;;;;19.92;33.23;99501.75;5078581;28;45330;-55
2021/12/08 12:26:58;;;;;;;;;1.75;1.00;;;;;20.01;35.17;99494.94;5078845;28;45362;-52
2021/12/08 12:29:42;;;;;;;;;3.00;1.50;;;;;20.09;33.86;99499.13;5078815;28;45315;-53
2021/12/08 12:32:21;;;;;;;;;2.50;1.75;;;;;20.07;34.05;99510.19;5078021;28;45804;-55
2021/12/08 12:34:51;;;;;;;;;5.00;3.00;;;;;19.92;35.15;99515.25;5078538;28;45448;-55
2021/12/08 12:37:17;;;;;;;;;3.50;1.25;;;;;19.43;35.44;99528.19;5078494;28;45376;-56
2021/12/08 12:39:50;;;;;;;;;2.75;0.00;;;;;18.62;34.76;99537.69;5078640;28;45429;-56
2021/12/08 12:42:18;;;;;;;;;1.00;1.00;;;;;18.51;34.65;99533.94;5078252;28;47496;-56
2021/12/08 12:45:02;;;;;;;;;2.00;1.00;;;;;18.38;35.08;99550.25;5078109;28;45416;-56